^^
Station Historical Data
Daily Summary for June 22, 2017 Units:  Both    English   Metric
« Previous Day
Next Day »
Daily Weekly Monthly Yearly Custom
  High: Low: Average:
Temperature: 72.7 °F /  22.6 °C 44.1 °F /  6.7 °C 57.2 °F /  14 °C
Dew Point: 37.0 °F /  2.8 °C 29.8 °F /  -1.2 °C 33.6 °F /  0.9 °C
Humidity: 65% 24% 43%
Wind Speed: 8.9mph /  14.3km/h - 0.5mph /  0.8km/h
Wind Gust: 9.0mph /  14.5km/h - -
Wind- - SSW
Pressure: 30.41 in /  1029.7 hPa 30.30 in /  1026 hPa -
Precipitation: 0.00 in /  0 mm    
Historical Graphs
 
 
Tabular Data for June 22, 2017
Time Temperature Dew Point Pressure Wind Wind Speed Wind Gust Humidity Rainfall Rate (Hourly) solar Conditions
00:04 48.9 °F /  9.4 °C 32.5 °F /  0.3 °C 30.34in /  1027.3hPa Calm     53% 0.00in /  0mm 0.0 W/m2
00:10 48.6 °F /  9.2 °C 32.2 °F /  0.1 °C 30.34in /  1027.3hPa Calm     53% 0.00in /  0mm 0.0 W/m2
00:16 48.4 °F /  9.1 °C 32.5 °F /  0.3 °C 30.34in /  1027.3hPa Calm     54% 0.00in /  0mm 0.0 W/m2
00:22 48.2 °F /  9 °C 32.4 °F /  0.2 °C 30.34in /  1027.3hPa Calm     54% 0.00in /  0mm 0.0 W/m2
00:28 48.0 °F /  8.9 °C 32.5 °F /  0.3 °C 30.34in /  1027.3hPa Calm     55% 0.00in /  0mm 0.0 W/m2
00:34 48.0 °F /  8.9 °C 32.5 °F /  0.3 °C 30.34in /  1027.3hPa Calm     55% 0.00in /  0mm 0.0 W/m2
00:40 48.0 °F /  8.9 °C 32.5 °F /  0.3 °C 30.34in /  1027.3hPa Calm     55% 0.00in /  0mm 0.0 W/m2
00:47 48.2 °F /  9 °C 32.7 °F /  0.4 °C 30.33in /  1027hPa Calm   1.0mph /  1.6km/h 55% 0.00in /  0mm 0.0 W/m2
00:53 48.2 °F /  9 °C 32.7 °F /  0.4 °C 30.33in /  1027hPa Calm     55% 0.00in /  0mm 0.0 W/m2
00:59 48.2 °F /  9 °C 32.7 °F /  0.4 °C 30.33in /  1027hPa Calm     55% 0.00in /  0mm 0.0 W/m2
01:05 48.4 °F /  9.1 °C 32.9 °F /  0.5 °C 30.33in /  1027hPa Calm     55% 0.00in /  0mm 0.0 W/m2
01:11 48.6 °F /  9.2 °C 33.1 °F /  0.6 °C 30.33in /  1027hPa Calm     55% 0.00in /  0mm 0.0 W/m2
01:17 48.6 °F /  9.2 °C 33.1 °F /  0.6 °C 30.33in /  1027hPa Calm   1.0mph /  1.6km/h 55% 0.00in /  0mm 0.0 W/m2
01:23 48.6 °F /  9.2 °C 33.1 °F /  0.6 °C 30.33in /  1027hPa Calm     55% 0.00in /  0mm 0.0 W/m2
01:29 48.6 °F /  9.2 °C 33.1 °F /  0.6 °C 30.33in /  1027hPa Calm     55% 0.00in /  0mm 0.0 W/m2
01:35 48.6 °F /  9.2 °C 33.1 °F /  0.6 °C 30.33in /  1027hPa Calm   1.0mph /  1.6km/h 55% 0.00in /  0mm 0.0 W/m2
01:41 48.6 °F /  9.2 °C 33.1 °F /  0.6 °C 30.33in /  1027hPa Calm     55% 0.00in /  0mm 0.0 W/m2
01:48 48.6 °F /  9.2 °C 33.1 °F /  0.6 °C 30.33in /  1027hPa Calm     55% 0.00in /  0mm 0.0 W/m2
01:54 48.4 °F /  9.1 °C 32.9 °F /  0.5 °C 30.33in /  1027hPa Calm   1.0mph /  1.6km/h 55% 0.00in /  0mm 0.0 W/m2
02:00 48.0 °F /  8.9 °C 33.1 °F /  0.6 °C 30.33in /  1027hPa Calm   2.0mph /  3.2km/h 56% 0.00in /  0mm 0.0 W/m2
02:06 48.0 °F /  8.9 °C 33.1 °F /  0.6 °C 30.33in /  1027hPa Calm     56% 0.00in /  0mm 0.0 W/m2
02:12 48.0 °F /  8.9 °C 33.1 °F /  0.6 °C 30.33in /  1027hPa East 0.9mph /  1.4km/h 2.0mph /  3.2km/h 56% 0.00in /  0mm 0.0 W/m2
02:18 47.8 °F /  8.8 °C 32.9 °F /  0.5 °C 30.32in /  1026.6hPa Calm   1.0mph /  1.6km/h 56% 0.00in /  0mm 0.0 W/m2
02:24 47.7 °F /  8.7 °C 32.7 °F /  0.4 °C 30.33in /  1027hPa Calm   1.0mph /  1.6km/h 56% 0.00in /  0mm 0.0 W/m2
02:30 47.7 °F /  8.7 °C 33.3 °F /  0.7 °C 30.32in /  1026.6hPa Calm   1.0mph /  1.6km/h 57% 0.00in /  0mm 0.0 W/m2
02:36 47.7 °F /  8.7 °C 33.3 °F /  0.7 °C 30.33in /  1027hPa Calm     57% 0.00in /  0mm 0.0 W/m2
02:43 47.7 °F /  8.7 °C 33.3 °F /  0.7 °C 30.32in /  1026.6hPa Calm   3.0mph /  4.8km/h 57% 0.00in /  0mm 0.0 W/m2
02:49 47.7 °F /  8.7 °C 33.3 °F /  0.7 °C 30.33in /  1027hPa East 0.9mph /  1.4km/h 1.0mph /  1.6km/h 57% 0.00in /  0mm 0.0 W/m2
02:55 47.5 °F /  8.6 °C 33.1 °F /  0.6 °C 30.33in /  1027hPa ENE 0.9mph /  1.4km/h 5.0mph /  8km/h 57% 0.00in /  0mm 0.0 W/m2
03:01 47.5 °F /  8.6 °C 33.1 °F /  0.6 °C 30.33in /  1027hPa NE 2.9mph /  4.7km/h 3.0mph /  4.8km/h 57% 0.00in /  0mm 0.0 W/m2
03:07 47.7 °F /  8.7 °C 33.3 °F /  0.7 °C 30.33in /  1027hPa NE 0.9mph /  1.4km/h 2.0mph /  3.2km/h 57% 0.00in /  0mm 0.0 W/m2
03:13 47.7 °F /  8.7 °C 33.3 °F /  0.7 °C 30.33in /  1027hPa Calm   2.0mph /  3.2km/h 57% 0.00in /  0mm 0.0 W/m2
03:19 47.7 °F /  8.7 °C 33.3 °F /  0.7 °C 30.33in /  1027hPa Calm   2.0mph /  3.2km/h 57% 0.00in /  0mm 0.0 W/m2
03:26 47.5 °F /  8.6 °C 33.1 °F /  0.6 °C 30.33in /  1027hPa Calm   1.0mph /  1.6km/h 57% 0.00in /  0mm 0.0 W/m2
03:32 47.5 °F /  8.6 °C 33.1 °F /  0.6 °C 30.33in /  1027hPa Calm   1.0mph /  1.6km/h 57% 0.00in /  0mm 0.0 W/m2
03:38 47.5 °F /  8.6 °C 33.1 °F /  0.6 °C 30.33in /  1027hPa Calm   2.0mph /  3.2km/h 57% 0.00in /  0mm 0.0 W/m2
03:44 47.5 °F /  8.6 °C 33.1 °F /  0.6 °C 30.33in /  1027hPa Calm   1.0mph /  1.6km/h 57% 0.00in /  0mm 0.0 W/m2
03:50 47.3 °F /  8.5 °C 32.9 °F /  0.5 °C 30.33in /  1027hPa Calm     57% 0.00in /  0mm 0.0 W/m2
03:56 47.1 °F /  8.4 °C 33.1 °F /  0.6 °C 30.33in /  1027hPa Calm   1.0mph /  1.6km/h 58% 0.00in /  0mm 0.0 W/m2
04:02 47.1 °F /  8.4 °C 33.1 °F /  0.6 °C 30.34in /  1027.3hPa Calm     58% 0.00in /  0mm 0.0 W/m2
04:08 46.9 °F /  8.3 °C 32.9 °F /  0.5 °C 30.34in /  1027.3hPa Calm     58% 0.00in /  0mm 0.0 W/m2
04:14 46.8 °F /  8.2 °C 33.3 °F /  0.7 °C 30.34in /  1027.3hPa Calm     59% 0.00in /  0mm 0.0 W/m2
04:21 46.6 °F /  8.1 °C 33.1 °F /  0.6 °C 30.34in /  1027.3hPa Calm     59% 0.00in /  0mm 0.0 W/m2
04:27 46.4 °F /  8 °C 33.3 °F /  0.7 °C 30.34in /  1027.3hPa Calm     60% 0.00in /  0mm 0.0 W/m2
04:33 46.2 °F /  7.9 °C 33.1 °F /  0.6 °C 30.34in /  1027.3hPa Calm     60% 0.00in /  0mm 0.0 W/m2
04:39 45.9 °F /  7.7 °C 33.3 °F /  0.7 °C 30.34in /  1027.3hPa Calm     61% 0.00in /  0mm 0.0 W/m2
04:45 45.7 °F /  7.6 °C 33.1 °F /  0.6 °C 30.34in /  1027.3hPa Calm     61% 0.00in /  0mm 0.0 W/m2
04:51 45.3 °F /  7.4 °C 32.7 °F /  0.4 °C 30.35in /  1027.7hPa Calm     61% 0.00in /  0mm 0.0 W/m2
04:57 45.0 °F /  7.2 °C 33.1 °F /  0.6 °C 30.34in /  1027.3hPa Calm     63% 0.00in /  0mm 0.0 W/m2
05:04 44.8 °F /  7.1 °C 33.3 °F /  0.7 °C 30.34in /  1027.3hPa Calm     64% 0.00in /  0mm 0.0 W/m2
05:10 44.4 °F /  6.9 °C 33.1 °F /  0.6 °C 30.35in /  1027.7hPa Calm     64% 0.00in /  0mm 0.0 W/m2
05:16 44.2 °F /  6.8 °C 33.3 °F /  0.7 °C 30.34in /  1027.3hPa Calm     65% 0.00in /  0mm 0.0 W/m2
05:22 44.1 °F /  6.7 °C 32.7 °F /  0.4 °C 30.34in /  1027.3hPa Calm     64% 0.00in /  0mm 0.0 W/m2
05:28 44.1 °F /  6.7 °C 32.7 °F /  0.4 °C 30.34in /  1027.3hPa Calm     64% 0.00in /  0mm 0.0 W/m2
05:34 44.1 °F /  6.7 °C 33.1 °F /  0.6 °C 30.35in /  1027.7hPa Calm     65% 0.00in /  0mm 0.0 W/m2
05:40 44.4 °F /  6.9 °C 33.1 °F /  0.6 °C 30.35in /  1027.7hPa Calm     64% 0.00in /  0mm 0.0 W/m2
05:46 44.6 °F /  7 °C 33.3 °F /  0.7 °C 30.35in /  1027.7hPa Calm     64% 0.00in /  0mm 0.0 W/m2
05:52 44.8 °F /  7.1 °C 32.9 °F /  0.5 °C 30.35in /  1027.7hPa Calm     63% 0.00in /  0mm 0.0 W/m2
05:59 44.6 °F /  7 °C 32.7 °F /  0.4 °C 30.35in /  1027.7hPa Calm     63% 0.00in /  0mm 0.0 W/m2
06:05 44.4 °F /  6.9 °C 32.5 °F /  0.3 °C 30.36in /  1028hPa Calm     63% 0.00in /  0mm 0.0 W/m2
06:11 44.2 °F /  6.8 °C 32.9 °F /  0.5 °C 30.36in /  1028hPa Calm     64% 0.00in /  0mm 0.0 W/m2
06:16 44.2 °F /  6.8 °C 32.9 °F /  0.5 °C 30.36in /  1028hPa Calm     64% 0.00in /  0mm 0.0 W/m2
06:22 44.2 °F /  6.8 °C 32.9 °F /  0.5 °C 30.36in /  1028hPa Calm     64% 0.00in /  0mm 0.0 W/m2
06:27 44.4 °F /  6.9 °C 33.1 °F /  0.6 °C 30.36in /  1028hPa Calm     64% 0.00in /  0mm 0.0 W/m2
06:33 44.2 °F /  6.8 °C 32.9 °F /  0.5 °C 30.37in /  1028.3hPa Calm     64% 0.00in /  0mm 0.0 W/m2
06:39 44.2 °F /  6.8 °C 32.9 °F /  0.5 °C 30.37in /  1028.3hPa Calm     64% 0.00in /  0mm 7.0 W/m2
06:45 44.6 °F /  7 °C 33.3 °F /  0.7 °C 30.37in /  1028.3hPa Calm   3.0mph /  4.8km/h 64% 0.00in /  0mm 9.0 W/m2
06:51 45.0 °F /  7.2 °C 33.1 °F /  0.6 °C 30.37in /  1028.3hPa Calm   1.0mph /  1.6km/h 63% 0.00in /  0mm 11.0 W/m2
06:58 45.0 °F /  7.2 °C 33.1 °F /  0.6 °C 30.37in /  1028.3hPa Calm     63% 0.00in /  0mm 12.0 W/m2
07:04 45.0 °F /  7.2 °C 33.1 °F /  0.6 °C 30.37in /  1028.3hPa Calm     63% 0.00in /  0mm 14.0 W/m2
07:10 45.1 °F /  7.3 °C 33.6 °F /  0.9 °C 30.38in /  1028.7hPa Calm     64% 0.00in /  0mm 16.0 W/m2
07:16 45.3 °F /  7.4 °C 33.4 °F /  0.8 °C 30.38in /  1028.7hPa Calm     63% 0.00in /  0mm 18.0 W/m2
07:22 45.9 °F /  7.7 °C 34.0 °F /  1.1 °C 30.38in /  1028.7hPa Calm     63% 0.00in /  0mm 19.0 W/m2
07:28 46.2 °F /  7.9 °C 34.0 °F /  1.1 °C 30.38in /  1028.7hPa Calm   2.0mph /  3.2km/h 62% 0.00in /  0mm 21.0 W/m2
07:34 46.6 °F /  8.1 °C 34.3 °F /  1.3 °C 30.38in /  1028.7hPa Calm   1.0mph /  1.6km/h 62% 0.00in /  0mm 23.0 W/m2
07:41 47.1 °F /  8.4 °C 34.3 °F /  1.3 °C 30.39in /  1029hPa Calm   1.0mph /  1.6km/h 61% 0.00in /  0mm 25.0 W/m2
07:47 47.7 °F /  8.7 °C 34.5 °F /  1.4 °C 30.39in /  1029hPa Calm     60% 0.00in /  0mm 30.0 W/m2
07:53 48.6 °F /  9.2 °C 34.9 °F /  1.6 °C 30.39in /  1029hPa Calm   2.0mph /  3.2km/h 59% 0.00in /  0mm 132.0 W/m2
07:59 49.8 °F /  9.9 °C 35.6 °F /  2 °C 30.39in /  1029hPa Calm     58% 0.00in /  0mm 255.0 W/m2
08:05 51.3 °F /  10.7 °C 37.0 °F /  2.8 °C 30.39in /  1029hPa Calm     58% 0.00in /  0mm 278.0 W/m2
08:11 52.7 °F /  11.5 °C 36.5 °F /  2.5 °C 30.40in /  1029.3hPa Calm     54% 0.00in /  0mm 297.0 W/m2
08:17 54.7 °F /  12.6 °C 36.9 °F /  2.7 °C 30.40in /  1029.3hPa Calm     51% 0.00in /  0mm 316.0 W/m2
08:23 57.0 °F /  13.9 °C 37.0 °F /  2.8 °C 30.40in /  1029.3hPa Calm   1.0mph /  1.6km/h 47% 0.00in /  0mm 336.0 W/m2
08:29 58.8 °F /  14.9 °C 36.3 °F /  2.4 °C 30.40in /  1029.3hPa Calm   1.0mph /  1.6km/h 43% 0.00in /  0mm 353.0 W/m2
08:37 61.3 °F /  16.3 °C 36.1 °F /  2.3 °C 30.40in /  1029.3hPa Calm     39% 0.00in /  0mm 380.0 W/m2
08:44 62.8 °F /  17.1 °C 36.1 °F /  2.3 °C 30.41in /  1029.7hPa Calm     37% 0.00in /  0mm 397.0 W/m2
08:50 63.9 °F /  17.7 °C 35.6 °F /  2 °C 30.41in /  1029.7hPa Calm   1.0mph /  1.6km/h 35% 0.00in /  0mm 415.0 W/m2
08:56 64.2 °F /  17.9 °C 36.0 °F /  2.2 °C 30.41in /  1029.7hPa Calm   1.0mph /  1.6km/h 35% 0.00in /  0mm 432.0 W/m2
09:02 64.2 °F /  17.9 °C 36.0 °F /  2.2 °C 30.41in /  1029.7hPa Calm     35% 0.00in /  0mm 448.0 W/m2
09:08 64.8 °F /  18.2 °C 36.5 °F /  2.5 °C 30.41in /  1029.7hPa Calm   1.0mph /  1.6km/h 35% 0.00in /  0mm 466.0 W/m2
09:14 65.1 °F /  18.4 °C 36.1 °F /  2.3 °C 30.41in /  1029.7hPa Calm   3.0mph /  4.8km/h 34% 0.00in /  0mm 482.0 W/m2
09:20 65.7 °F /  18.7 °C 35.8 °F /  2.1 °C 30.41in /  1029.7hPa Calm   3.0mph /  4.8km/h 33% 0.00in /  0mm 497.0 W/m2
09:27 65.8 °F /  18.8 °C 35.2 °F /  1.8 °C 30.41in /  1029.7hPa NW 2.0mph /  3.2km/h 7.0mph /  11.3km/h 32% 0.00in /  0mm 512.0 W/m2
09:33 66.4 °F /  19.1 °C 36.3 °F /  2.4 °C 30.41in /  1029.7hPa Calm   6.0mph /  9.7km/h 33% 0.00in /  0mm 526.0 W/m2
09:39 66.7 °F /  19.3 °C 36.0 °F /  2.2 °C 30.41in /  1029.7hPa Calm   5.0mph /  8km/h 32% 0.00in /  0mm 538.0 W/m2
09:45 67.1 °F /  19.5 °C 36.3 °F /  2.4 °C 30.41in /  1029.7hPa NNW 2.9mph /  4.7km/h 3.0mph /  4.8km/h 32% 0.00in /  0mm 552.0 W/m2
09:51 67.8 °F /  19.9 °C 36.9 °F /  2.7 °C 30.41in /  1029.7hPa Calm   2.0mph /  3.2km/h 32% 0.00in /  0mm 566.0 W/m2
09:57 68.4 °F /  20.2 °C 35.8 °F /  2.1 °C 30.41in /  1029.7hPa North 0.9mph /  1.4km/h 7.0mph /  11.3km/h 30% 0.00in /  0mm 577.0 W/m2
10:03 68.4 °F /  20.2 °C 36.5 °F /  2.5 °C 30.41in /  1029.7hPa NW 2.0mph /  3.2km/h 4.0mph /  6.4km/h 31% 0.00in /  0mm 585.0 W/m2
10:10 68.4 °F /  20.2 °C 36.5 °F /  2.5 °C 30.41in /  1029.7hPa Calm   6.0mph /  9.7km/h 31% 0.00in /  0mm 596.0 W/m2
10:16 68.4 °F /  20.2 °C 36.5 °F /  2.5 °C 30.41in /  1029.7hPa NNW 8.9mph /  14.3km/h 9.0mph /  14.5km/h 31% 0.00in /  0mm 608.0 W/m2
10:22 68.5 °F /  20.3 °C 36.0 °F /  2.2 °C 30.41in /  1029.7hPa NW 0.9mph /  1.4km/h 8.0mph /  12.9km/h 30% 0.00in /  0mm 619.0 W/m2
10:28 68.5 °F /  20.3 °C 36.0 °F /  2.2 °C 30.40in /  1029.3hPa Calm   6.0mph /  9.7km/h 30% 0.00in /  0mm 622.0 W/m2
10:34 68.7 °F /  20.4 °C 36.9 °F /  2.7 °C 30.40in /  1029.3hPa WSW 0.9mph /  1.4km/h 1.0mph /  1.6km/h 31% 0.00in /  0mm 633.0 W/m2
10:40 69.1 °F /  20.6 °C 35.4 °F /  1.9 °C 30.40in /  1029.3hPa NNW 4.9mph /  7.9km/h 8.0mph /  12.9km/h 29% 0.00in /  0mm 642.0 W/m2
10:46 69.4 °F /  20.8 °C 35.8 °F /  2.1 °C 30.40in /  1029.3hPa NNW 2.9mph /  4.7km/h 5.0mph /  8km/h 29% 0.00in /  0mm 650.0 W/m2
10:52 69.8 °F /  21 °C 35.2 °F /  1.8 °C 30.40in /  1029.3hPa ENE 0.9mph /  1.4km/h 2.0mph /  3.2km/h 28% 0.00in /  0mm 652.0 W/m2
10:59 70.0 °F /  21.1 °C 36.3 °F /  2.4 °C 30.40in /  1029.3hPa NW 2.0mph /  3.2km/h 4.0mph /  6.4km/h 29% 0.00in /  0mm 663.0 W/m2
11:05 69.6 °F /  20.9 °C 35.1 °F /  1.7 °C 30.39in /  1029hPa Calm   1.0mph /  1.6km/h 28% 0.00in /  0mm 663.0 W/m2
11:11 70.0 °F /  21.1 °C 35.4 °F /  1.9 °C 30.39in /  1029hPa Calm   1.0mph /  1.6km/h 28% 0.00in /  0mm 663.0 W/m2
11:17 70.2 °F /  21.2 °C 35.6 °F /  2 °C 30.39in /  1029hPa Calm   8.0mph /  12.9km/h 28% 0.00in /  0mm 666.0 W/m2
11:23 70.5 °F /  21.4 °C 35.8 °F /  2.1 °C 30.39in /  1029hPa Calm   3.0mph /  4.8km/h 28% 0.00in /  0mm 671.0 W/m2
11:29 70.3 °F /  21.3 °C 34.7 °F /  1.5 °C 30.38in /  1028.7hPa Calm   1.0mph /  1.6km/h 27% 0.00in /  0mm 673.0 W/m2
11:35 70.2 °F /  21.2 °C 35.6 °F /  2 °C 30.38in /  1028.7hPa Calm   7.0mph /  11.3km/h 28% 0.00in /  0mm 679.0 W/m2
11:41 70.0 °F /  21.1 °C 35.4 °F /  1.9 °C 30.38in /  1028.7hPa Calm   6.0mph /  9.7km/h 28% 0.00in /  0mm 680.0 W/m2
11:48 70.0 °F /  21.1 °C 35.4 °F /  1.9 °C 30.38in /  1028.7hPa SSE 0.9mph /  1.4km/h 2.0mph /  3.2km/h 28% 0.00in /  0mm 680.0 W/m2
11:54 70.0 °F /  21.1 °C 34.5 °F /  1.4 °C 30.37in /  1028.3hPa South 0.9mph /  1.4km/h 2.0mph /  3.2km/h 27% 0.00in /  0mm 679.0 W/m2
12:00 69.4 °F /  20.8 °C 34.0 °F /  1.1 °C 30.37in /  1028.3hPa Calm   3.0mph /  4.8km/h 27% 0.00in /  0mm 677.0 W/m2
12:06 69.6 °F /  20.9 °C 35.1 °F /  1.7 °C 30.37in /  1028.3hPa NW 0.9mph /  1.4km/h 3.0mph /  4.8km/h 28% 0.00in /  0mm 675.0 W/m2
12:12 70.0 °F /  21.1 °C 34.5 °F /  1.4 °C 30.36in /  1028hPa NNE 0.9mph /  1.4km/h 2.0mph /  3.2km/h 27% 0.00in /  0mm 673.0 W/m2
12:18 70.2 °F /  21.2 °C 34.7 °F /  1.5 °C 30.36in /  1028hPa Calm   2.0mph /  3.2km/h 27% 0.00in /  0mm 670.0 W/m2
12:24 70.3 °F /  21.3 °C 34.7 °F /  1.5 °C 30.36in /  1028hPa South 2.0mph /  3.2km/h 5.0mph /  8km/h 27% 0.00in /  0mm 668.0 W/m2
12:30 70.0 °F /  21.1 °C 34.5 °F /  1.4 °C 30.35in /  1027.7hPa South 0.9mph /  1.4km/h 2.0mph /  3.2km/h 27% 0.00in /  0mm 663.0 W/m2
12:37 70.0 °F /  21.1 °C 35.4 °F /  1.9 °C 30.35in /  1027.7hPa Calm   1.0mph /  1.6km/h 28% 0.00in /  0mm 657.0 W/m2
12:43 70.3 °F /  21.3 °C 34.7 °F /  1.5 °C 30.35in /  1027.7hPa North 2.9mph /  4.7km/h 7.0mph /  11.3km/h 27% 0.00in /  0mm 647.0 W/m2
12:49 71.1 °F /  21.7 °C 35.4 °F /  1.9 °C 30.35in /  1027.7hPa North 2.0mph /  3.2km/h 4.0mph /  6.4km/h 27% 0.00in /  0mm 642.0 W/m2
12:55 71.4 °F /  21.9 °C 34.7 °F /  1.5 °C 30.34in /  1027.3hPa West 0.9mph /  1.4km/h 5.0mph /  8km/h 26% 0.00in /  0mm 638.0 W/m2
13:01 71.1 °F /  21.7 °C 34.5 °F /  1.4 °C 30.34in /  1027.3hPa NW 2.0mph /  3.2km/h 5.0mph /  8km/h 26% 0.00in /  0mm 631.0 W/m2
13:07 70.9 °F /  21.6 °C 33.3 °F /  0.7 °C 30.34in /  1027.3hPa Calm   1.0mph /  1.6km/h 25% 0.00in /  0mm 621.0 W/m2
13:13 71.1 °F /  21.7 °C 34.5 °F /  1.4 °C 30.33in /  1027hPa Calm   4.0mph /  6.4km/h 26% 0.00in /  0mm 615.0 W/m2
13:19 71.8 °F /  22.1 °C 34.0 °F /  1.1 °C 30.33in /  1027hPa ESE 2.0mph /  3.2km/h 5.0mph /  8km/h 25% 0.00in /  0mm 606.0 W/m2
13:26 71.8 °F /  22.1 °C 34.0 °F /  1.1 °C 30.33in /  1027hPa NNW 6.0mph /  9.7km/h 6.0mph /  9.7km/h 25% 0.00in /  0mm 599.0 W/m2
13:32 71.8 °F /  22.1 °C 33.1 °F /  0.6 °C 30.33in /  1027hPa NNE 2.0mph /  3.2km/h 7.0mph /  11.3km/h 24% 0.00in /  0mm 589.0 W/m2
13:38 71.8 °F /  22.1 °C 33.1 °F /  0.6 °C 30.32in /  1026.6hPa Calm   2.0mph /  3.2km/h 24% 0.00in /  0mm 575.0 W/m2
13:44 71.8 °F /  22.1 °C 34.0 °F /  1.1 °C 30.32in /  1026.6hPa NE 2.0mph /  3.2km/h 5.0mph /  8km/h 25% 0.00in /  0mm 566.0 W/m2
13:50 72.0 °F /  22.2 °C 33.3 °F /  0.7 °C 30.32in /  1026.6hPa NNW 2.0mph /  3.2km/h 4.0mph /  6.4km/h 24% 0.00in /  0mm 555.0 W/m2
13:56 72.0 °F /  22.2 °C 34.2 °F /  1.2 °C 30.32in /  1026.6hPa WSW 4.0mph /  6.4km/h 7.0mph /  11.3km/h 25% 0.00in /  0mm 541.0 W/m2
14:03 71.6 °F /  22 °C 34.0 °F /  1.1 °C 30.32in /  1026.6hPa South 4.0mph /  6.4km/h 4.0mph /  6.4km/h 25% 0.00in /  0mm 529.0 W/m2
14:08 71.4 °F /  21.9 °C 32.7 °F /  0.4 °C 30.31in /  1026.3hPa Calm   1.0mph /  1.6km/h 24% 0.00in /  0mm 515.0 W/m2
14:15 71.6 °F /  22 °C 34.0 °F /  1.1 °C 30.31in /  1026.3hPa ENE 0.9mph /  1.4km/h 3.0mph /  4.8km/h 25% 0.00in /  0mm 503.0 W/m2
14:21 72.0 °F /  22.2 °C 34.2 °F /  1.2 °C 30.31in /  1026.3hPa Calm   1.0mph /  1.6km/h 25% 0.00in /  0mm 485.0 W/m2
14:27 72.3 °F /  22.4 °C 33.4 °F /  0.8 °C 30.31in /  1026.3hPa NNW 2.9mph /  4.7km/h 4.0mph /  6.4km/h 24% 0.00in /  0mm 469.0 W/m2
14:33 72.7 °F /  22.6 °C 33.8 °F /  1 °C 30.31in /  1026.3hPa Calm   8.0mph /  12.9km/h 24% 0.00in /  0mm 454.0 W/m2
14:39 72.7 °F /  22.6 °C 33.8 °F /  1 °C 30.31in /  1026.3hPa Calm   5.0mph /  8km/h 24% 0.00in /  0mm 446.0 W/m2
14:45 72.7 °F /  22.6 °C 33.8 °F /  1 °C 30.30in /  1026hPa Calm     24% 0.00in /  0mm 422.0 W/m2
14:51 72.3 °F /  22.4 °C 33.4 °F /  0.8 °C 30.30in /  1026hPa NNE 4.0mph /  6.4km/h 4.0mph /  6.4km/h 24% 0.00in /  0mm 404.0 W/m2
14:57 72.1 °F /  22.3 °C 33.4 °F /  0.8 °C 30.30in /  1026hPa NE 0.9mph /  1.4km/h 4.0mph /  6.4km/h 24% 0.00in /  0mm 383.0 W/m2
15:04 72.1 °F /  22.3 °C 34.3 °F /  1.3 °C 30.31in /  1026.3hPa Calm   2.0mph /  3.2km/h 25% 0.00in /  0mm 364.0 W/m2
15:10 72.0 °F /  22.2 °C 34.2 °F /  1.2 °C 30.30in /  1026hPa Calm   3.0mph /  4.8km/h 25% 0.00in /  0mm 346.0 W/m2
15:17 71.8 °F /  22.1 °C 34.0 °F /  1.1 °C 30.30in /  1026hPa NNW 2.0mph /  3.2km/h 2.0mph /  3.2km/h 25% 0.00in /  0mm 325.0 W/m2
15:23 71.4 °F /  21.9 °C 33.8 °F /  1 °C 30.30in /  1026hPa NNE 6.0mph /  9.7km/h 6.0mph /  9.7km/h 25% 0.00in /  0mm 51.0 W/m2
15:28 71.2 °F /  21.8 °C 33.6 °F /  0.9 °C 30.30in /  1026hPa WSW 0.9mph /  1.4km/h 4.0mph /  6.4km/h 25% 0.00in /  0mm 46.0 W/m2
15:34 71.1 °F /  21.7 °C 33.4 °F /  0.8 °C 30.30in /  1026hPa Calm   2.0mph /  3.2km/h 25% 0.00in /  0mm 42.0 W/m2
15:40 70.7 °F /  21.5 °C 34.2 °F /  1.2 °C 30.30in /  1026hPa Calm   5.0mph /  8km/h 26% 0.00in /  0mm 40.0 W/m2
15:46 70.3 °F /  21.3 °C 33.8 °F /  1 °C 30.30in /  1026hPa Calm   1.0mph /  1.6km/h 26% 0.00in /  0mm 39.0 W/m2
15:53 70.2 °F /  21.2 °C 33.6 °F /  0.9 °C 30.30in /  1026hPa North 2.0mph /  3.2km/h 6.0mph /  9.7km/h 26% 0.00in /  0mm 37.0 W/m2
15:59 70.0 °F /  21.1 °C 33.4 °F /  0.8 °C 30.30in /  1026hPa NW 2.0mph /  3.2km/h 5.0mph /  8km/h 26% 0.00in /  0mm 33.0 W/m2
16:05 70.0 °F /  21.1 °C 34.5 °F /  1.4 °C 30.30in /  1026hPa Calm   4.0mph /  6.4km/h 27% 0.00in /  0mm 30.0 W/m2
16:11 69.6 °F /  20.9 °C 34.2 °F /  1.2 °C 30.30in /  1026hPa NNW 2.0mph /  3.2km/h 5.0mph /  8km/h 27% 0.00in /  0mm 25.0 W/m2
16:17 69.3 °F /  20.7 °C 33.8 °F /  1 °C 30.30in /  1026hPa NNW 2.9mph /  4.7km/h 6.0mph /  9.7km/h 27% 0.00in /  0mm 23.0 W/m2
16:23 69.1 °F /  20.6 °C 33.6 °F /  0.9 °C 30.30in /  1026hPa NNW 2.0mph /  3.2km/h 6.0mph /  9.7km/h 27% 0.00in /  0mm 21.0 W/m2
16:29 68.7 °F /  20.4 °C 33.4 °F /  0.8 °C 30.30in /  1026hPa NW 2.0mph /  3.2km/h 5.0mph /  8km/h 27% 0.00in /  0mm 19.0 W/m2
16:35 68.5 °F /  20.3 °C 33.3 °F /  0.7 °C 30.30in /  1026hPa Calm   2.0mph /  3.2km/h 27% 0.00in /  0mm 19.0 W/m2
16:42 68.4 °F /  20.2 °C 34.0 °F /  1.1 °C 30.30in /  1026hPa Calm     28% 0.00in /  0mm 18.0 W/m2
16:48 68.0 °F /  20 °C 33.6 °F /  0.9 °C 30.30in /  1026hPa Calm     28% 0.00in /  0mm 16.0 W/m2
16:54 67.6 °F /  19.8 °C 33.4 °F /  0.8 °C 30.30in /  1026hPa Calm     28% 0.00in /  0mm 12.0 W/m2
17:00 67.3 °F /  19.6 °C 34.0 °F /  1.1 °C 30.31in /  1026.3hPa Calm   1.0mph /  1.6km/h 29% 0.00in /  0mm 11.0 W/m2
17:06 66.7 °F /  19.3 °C 34.3 °F /  1.3 °C 30.30in /  1026hPa Calm   1.0mph /  1.6km/h 30% 0.00in /  0mm 9.0 W/m2
17:12 66.4 °F /  19.1 °C 34.9 °F /  1.6 °C 30.31in /  1026.3hPa Calm     31% 0.00in /  0mm 5.0 W/m2
17:19 65.7 °F /  18.7 °C 34.2 °F /  1.2 °C 30.31in /  1026.3hPa Calm     31% 0.00in /  0mm 0.0 W/m2
17:25 65.1 °F /  18.4 °C 34.5 °F /  1.4 °C 30.31in /  1026.3hPa Calm     32% 0.00in /  0mm 0.0 W/m2
17:31 64.4 °F /  18 °C 34.0 °F /  1.1 °C 30.31in /  1026.3hPa Calm     32% 0.00in /  0mm 0.0 W/m2
17:37 63.7 °F /  17.6 °C 34.0 °F /  1.1 °C 30.32in /  1026.6hPa Calm     33% 0.00in /  0mm 0.0 W/m2
17:43 63.0 °F /  17.2 °C 33.4 °F /  0.8 °C 30.32in /  1026.6hPa Calm     33% 0.00in /  0mm 0.0 W/m2
17:49 62.2 °F /  16.8 °C 34.2 °F /  1.2 °C 30.32in /  1026.6hPa Calm     35% 0.00in /  0mm 0.0 W/m2
17:55 61.5 °F /  16.4 °C 33.6 °F /  0.9 °C 30.32in /  1026.6hPa Calm     35% 0.00in /  0mm 0.0 W/m2
18:01 61.0 °F /  16.1 °C 33.8 °F /  1 °C 30.33in /  1027hPa Calm     36% 0.00in /  0mm 0.0 W/m2
18:08 60.3 °F /  15.7 °C 33.8 °F /  1 °C 30.33in /  1027hPa Calm     37% 0.00in /  0mm 0.0 W/m2
18:14 59.5 °F /  15.3 °C 33.3 °F /  0.7 °C 30.33in /  1027hPa Calm     37% 0.00in /  0mm 0.0 W/m2
18:20 59.0 °F /  15 °C 34.2 °F /  1.2 °C 30.33in /  1027hPa Calm     39% 0.00in /  0mm 0.0 W/m2
18:26 58.5 °F /  14.7 °C 33.6 °F /  0.9 °C 30.34in /  1027.3hPa Calm     39% 0.00in /  0mm 0.0 W/m2
18:32 57.9 °F /  14.4 °C 33.1 °F /  0.6 °C 30.34in /  1027.3hPa Calm     39% 0.00in /  0mm 0.0 W/m2
18:38 57.4 °F /  14.1 °C 33.3 °F /  0.7 °C 30.34in /  1027.3hPa Calm     40% 0.00in /  0mm 0.0 W/m2
18:44 57.0 °F /  13.9 °C 33.6 °F /  0.9 °C 30.34in /  1027.3hPa Calm     41% 0.00in /  0mm 0.0 W/m2
18:50 56.7 °F /  13.7 °C 33.8 °F /  1 °C 30.34in /  1027.3hPa Calm     42% 0.00in /  0mm 0.0 W/m2
18:56 56.1 °F /  13.4 °C 33.3 °F /  0.7 °C 30.34in /  1027.3hPa Calm     42% 0.00in /  0mm 0.0 W/m2
19:03 55.8 °F /  13.2 °C 33.1 °F /  0.6 °C 30.34in /  1027.3hPa Calm     42% 0.00in /  0mm 0.0 W/m2
19:09 55.4 °F /  13 °C 33.3 °F /  0.7 °C 30.35in /  1027.7hPa Calm     43% 0.00in /  0mm 0.0 W/m2
19:15 54.9 °F /  12.7 °C 32.7 °F /  0.4 °C 30.35in /  1027.7hPa Calm     43% 0.00in /  0mm 0.0 W/m2
19:21 54.5 °F /  12.5 °C 33.1 °F /  0.6 °C 30.35in /  1027.7hPa Calm     44% 0.00in /  0mm 0.0 W/m2
19:27 54.1 °F /  12.3 °C 33.3 °F /  0.7 °C 30.35in /  1027.7hPa Calm     45% 0.00in /  0mm 0.0 W/m2
19:33 53.8 °F /  12.1 °C 33.4 °F /  0.8 °C 30.35in /  1027.7hPa Calm     46% 0.00in /  0mm 0.0 W/m2
19:39 53.4 °F /  11.9 °C 33.1 °F /  0.6 °C 30.35in /  1027.7hPa Calm     46% 0.00in /  0mm 0.0 W/m2
19:45 53.1 °F /  11.7 °C 32.9 °F /  0.5 °C 30.36in /  1028hPa Calm     46% 0.00in /  0mm 0.0 W/m2
19:52 52.9 °F /  11.6 °C 32.7 °F /  0.4 °C 30.36in /  1028hPa Calm   3.0mph /  4.8km/h 46% 0.00in /  0mm 0.0 W/m2
19:58 53.1 °F /  11.7 °C 32.4 °F /  0.2 °C 30.36in /  1028hPa Calm   2.0mph /  3.2km/h 45% 0.00in /  0mm 0.0 W/m2
20:04 53.2 °F /  11.8 °C 32.4 °F /  0.2 °C 30.36in /  1028hPa Calm     45% 0.00in /  0mm 0.0 W/m2
20:10 53.4 °F /  11.9 °C 32.5 °F /  0.3 °C 30.36in /  1028hPa Calm     45% 0.00in /  0mm 0.0 W/m2
20:16 53.6 °F /  12 °C 32.7 °F /  0.4 °C 30.37in /  1028.3hPa Calm     45% 0.00in /  0mm 0.0 W/m2
20:22 53.2 °F /  11.8 °C 32.4 °F /  0.2 °C 30.37in /  1028.3hPa Calm     45% 0.00in /  0mm 0.0 W/m2
20:28 53.1 °F /  11.7 °C 32.4 °F /  0.2 °C 30.37in /  1028.3hPa East 0.9mph /  1.4km/h 3.0mph /  4.8km/h 45% 0.00in /  0mm 0.0 W/m2
20:41 52.7 °F /  11.5 °C 32.5 °F /  0.3 °C 30.37in /  1028.3hPa Calm   3.0mph /  4.8km/h 46% 0.00in /  0mm 0.0 W/m2
20:47 52.5 °F /  11.4 °C 32.4 °F /  0.2 °C 30.37in /  1028.3hPa Calm   3.0mph /  4.8km/h 46% 0.00in /  0mm 0.0 W/m2
20:53 52.3 °F /  11.3 °C 32.2 °F /  0.1 °C 30.37in /  1028.3hPa Calm   2.0mph /  3.2km/h 46% 0.00in /  0mm 0.0 W/m2
20:59 52.3 °F /  11.3 °C 32.2 °F /  0.1 °C 30.38in /  1028.7hPa Calm   3.0mph /  4.8km/h 46% 0.00in /  0mm 0.0 W/m2
21:05 52.3 °F /  11.3 °C 32.2 °F /  0.1 °C 30.38in /  1028.7hPa ENE 0.9mph /  1.4km/h 4.0mph /  6.4km/h 46% 0.00in /  0mm 0.0 W/m2
21:12 52.5 °F /  11.4 °C 32.4 °F /  0.2 °C 30.38in /  1028.7hPa ENE 2.9mph /  4.7km/h 3.0mph /  4.8km/h 46% 0.00in /  0mm 0.0 W/m2
21:18 52.9 °F /  11.6 °C 32.2 °F /  0.1 °C 30.38in /  1028.7hPa Calm   5.0mph /  8km/h 45% 0.00in /  0mm 0.0 W/m2
21:24 53.1 °F /  11.7 °C 32.4 °F /  0.2 °C 30.38in /  1028.7hPa Calm     45% 0.00in /  0mm 0.0 W/m2
21:30 53.1 °F /  11.7 °C 32.4 °F /  0.2 °C 30.38in /  1028.7hPa Calm     45% 0.00in /  0mm 0.0 W/m2
21:36 52.9 °F /  11.6 °C 32.7 °F /  0.4 °C 30.38in /  1028.7hPa Calm     46% 0.00in /  0mm 0.0 W/m2
21:42 52.5 °F /  11.4 °C 32.4 °F /  0.2 °C 30.38in /  1028.7hPa Calm     46% 0.00in /  0mm 0.0 W/m2
21:48 52.3 °F /  11.3 °C 32.2 °F /  0.1 °C 30.38in /  1028.7hPa Calm     46% 0.00in /  0mm 0.0 W/m2
21:55 52.0 °F /  11.1 °C 32.4 °F /  0.2 °C 30.38in /  1028.7hPa Calm     47% 0.00in /  0mm 0.0 W/m2
22:01 51.6 °F /  10.9 °C 31.5 °F /  -0.3 °C 30.38in /  1028.7hPa Calm     46% 0.00in /  0mm 0.0 W/m2
22:07 51.3 °F /  10.7 °C 31.6 °F /  -0.2 °C 30.38in /  1028.7hPa Calm     47% 0.00in /  0mm 0.0 W/m2
22:13 50.9 °F /  10.5 °C 31.5 °F /  -0.3 °C 30.38in /  1028.7hPa Calm   1.0mph /  1.6km/h 47% 0.00in /  0mm 0.0 W/m2
22:19 50.5 °F /  10.3 °C 31.6 °F /  -0.2 °C 30.38in /  1028.7hPa Calm     48% 0.00in /  0mm 0.0 W/m2
22:25 50.4 °F /  10.2 °C 31.5 °F /  -0.3 °C 30.38in /  1028.7hPa Calm     48% 0.00in /  0mm 0.0 W/m2
22:31 50.0 °F /  10 °C 31.6 °F /  -0.2 °C 30.38in /  1028.7hPa Calm     49% 0.00in /  0mm 0.0 W/m2
22:37 49.6 °F /  9.8 °C 31.3 °F /  -0.4 °C 30.38in /  1028.7hPa Calm     49% 0.00in /  0mm 0.0 W/m2
22:43 49.5 °F /  9.7 °C 31.1 °F /  -0.5 °C 30.38in /  1028.7hPa Calm     49% 0.00in /  0mm 0.0 W/m2
22:50 49.3 °F /  9.6 °C 30.9 °F /  -0.6 °C 30.38in /  1028.7hPa Calm     49% 0.00in /  0mm 0.0 W/m2
22:56 49.3 °F /  9.6 °C 30.4 °F /  -0.9 °C 30.38in /  1028.7hPa Calm     48% 0.00in /  0mm 0.0 W/m2
23:02 49.3 °F /  9.6 °C 30.4 °F /  -0.9 °C 30.38in /  1028.7hPa Calm     48% 0.00in /  0mm 0.0 W/m2
23:08 49.5 °F /  9.7 °C 30.6 °F /  -0.8 °C 30.38in /  1028.7hPa Calm     48% 0.00in /  0mm 0.0 W/m2
23:14 49.5 °F /  9.7 °C 30.6 °F /  -0.8 °C 30.38in /  1028.7hPa Calm     48% 0.00in /  0mm 0.0 W/m2
23:20 49.3 °F /  9.6 °C 30.4 °F /  -0.9 °C 30.38in /  1028.7hPa Calm     48% 0.00in /  0mm 0.0 W/m2
23:26 49.3 °F /  9.6 °C 30.4 °F /  -0.9 °C 30.37in /  1028.3hPa Calm     48% 0.00in /  0mm 0.0 W/m2
23:32 48.9 °F /  9.4 °C 30.0 °F /  -1.1 °C 30.38in /  1028.7hPa Calm     48% 0.00in /  0mm 0.0 W/m2
23:38 48.7 °F /  9.3 °C 29.8 °F /  -1.2 °C 30.37in /  1028.3hPa Calm     48% 0.00in /  0mm 0.0 W/m2
23:44 48.6 °F /  9.2 °C 29.8 °F /  -1.2 °C 30.37in /  1028.3hPa Calm     48% 0.00in /  0mm 0.0 W/m2
23:50 48.6 °F /  9.2 °C 30.2 °F /  -1 °C 30.37in /  1028.3hPa Calm     49% 0.00in /  0mm 0.0 W/m2
23:56 48.4 °F /  9.1 °C 30.6 °F /  -0.8 °C 30.36in /  1028hPa Calm     50% 0.00in /  0mm 0.0 W/m2
Olympia, Windhoek, Namibia
Compliments of Weather Underground - 3 mb